createdAt,value
2023-08-02T00:01:45.952Z,98756.59
2023-08-02T00:04:22.207Z,98746.13
2023-08-02T00:06:52.863Z,98754.56
2023-08-02T00:09:23.132Z,98798.59
2023-08-02T00:11:54.470Z,98804.38
2023-08-02T00:14:28.037Z,98800.28
2023-08-02T00:16:58.378Z,98796.63
2023-08-02T00:19:31.352Z,98777.06
2023-08-02T00:22:04.017Z,98779.16
2023-08-02T00:24:36.341Z,98778.75
2023-08-02T00:27:09.778Z,98787.81
2023-08-02T00:29:40.519Z,98805.91
2023-08-02T00:32:11.364Z,98808.81
2023-08-02T00:34:49.433Z,98808.22
2023-08-02T00:37:19.789Z,98827.94
2023-08-02T00:40:01.104Z,98849.97
2023-08-02T00:42:31.393Z,98838.63
2023-08-02T00:45:04.878Z,98836.41
2023-08-02T00:47:38.756Z,98840.09
2023-08-02T00:50:13.381Z,98851.22
2023-08-02T00:52:44.107Z,98850.56
2023-08-02T00:55:14.414Z,98834.09
2023-08-02T00:57:47.595Z,98839.88
2023-08-02T01:00:19.999Z,98845.22
2023-08-02T01:02:54.110Z,98851.19
2023-08-02T01:05:37.018Z,98855.50
2023-08-02T01:08:10.907Z,98831.22
2023-08-02T01:10:50.223Z,98842.53
2023-08-02T01:13:22.967Z,98848.50
2023-08-02T01:15:53.434Z,98841.72
2023-08-02T01:18:24.623Z,98846.88
2023-08-02T01:20:57.479Z,98841.94
2023-08-02T01:23:28.536Z,98852.22
2023-08-02T01:26:02.446Z,98859.66
2023-08-02T01:28:35.140Z,98851.19
2023-08-02T01:31:07.080Z,98850.38
2023-08-02T01:33:50.592Z,98839.44
2023-08-02T01:36:26.774Z,98843.59
2023-08-02T01:38:59.398Z,98838.44
2023-08-02T01:41:29.757Z,98829.81
2023-08-02T01:44:02.419Z,98828.16
2023-08-02T01:46:40.070Z,98824.66
2023-08-02T01:49:10.799Z,98825.28
2023-08-02T01:51:43.688Z,98828.78
2023-08-02T01:54:13.970Z,98837.19
2023-08-02T01:56:47.112Z,98828.34
2023-08-02T01:59:20.463Z,98831.63
2023-08-02T02:01:50.774Z,98838.22
2023-08-02T02:04:21.244Z,98847.88
2023-08-02T02:06:54.544Z,98846.44
2023-08-02T02:09:24.834Z,98848.91
2023-08-02T02:12:18.057Z,98851.78
2023-08-02T02:15:07.411Z,98854.44
2023-08-02T02:17:37.824Z,98856.94
2023-08-02T02:20:10.061Z,98851.19
2023-08-02T02:22:43.119Z,98862.28
2023-08-02T02:25:16.209Z,98862.06
2023-08-02T02:27:49.402Z,98853.88
2023-08-02T02:30:22.789Z,98861.88
2023-08-02T02:33:11.385Z,98864.97
2023-08-02T02:35:44.590Z,98867.00
2023-08-02T02:38:20.942Z,98861.88
2023-08-02T02:40:51.553Z,98863.50
2023-08-02T02:43:24.036Z,98871.34
2023-08-02T02:45:58.242Z,98882.44
2023-08-02T02:48:28.900Z,98891.66
2023-08-02T02:51:00.214Z,98903.81
2023-08-02T02:53:35.644Z,98911.63
2023-08-02T02:56:05.994Z,98907.09
2023-08-02T02:58:36.502Z,98912.66
2023-08-02T03:01:12.877Z,98922.31
2023-08-02T03:03:44.421Z,98914.31
2023-08-02T03:06:17.725Z,98918.41
2023-08-02T03:08:53.032Z,98932.22
2023-08-02T03:11:23.339Z,98925.81
2023-08-02T03:13:59.475Z,98924.56
2023-08-02T03:16:29.857Z,98930.56
2023-08-02T03:19:07.583Z,98938.94
2023-08-02T03:21:37.923Z,98939.81
2023-08-02T03:24:10.829Z,98945.16
2023-08-02T03:26:41.245Z,98942.47
2023-08-02T03:29:11.875Z,98957.91
2023-08-02T03:31:42.483Z,98944.34
2023-08-02T03:34:16.562Z,98943.13
2023-08-02T03:36:46.838Z,98944.75
2023-08-02T03:39:21.344Z,98947.00
2023-08-02T03:41:51.603Z,98953.16
2023-08-02T03:44:21.873Z,98956.47
2023-08-02T03:46:51.820Z,98957.47
2023-08-02T03:49:22.328Z,98952.75
2023-08-02T03:51:55.192Z,98948.25
2023-08-02T03:54:39.173Z,98949.25
2023-08-02T03:57:09.689Z,98958.94
2023-08-02T03:59:42.021Z,98952.56
2023-08-02T04:02:14.810Z,98957.31
2023-08-02T04:04:45.167Z,98966.56
2023-08-02T04:07:18.894Z,98965.97
2023-08-02T04:09:52.071Z,98972.34
2023-08-02T04:12:22.761Z,98969.50
2023-08-02T04:14:55.502Z,98972.41
2023-08-02T04:17:31.974Z,98969.75
2023-08-02T04:20:05.802Z,98969.94
2023-08-02T04:22:36.078Z,98967.09
2023-08-02T04:25:13.238Z,98977.97
2023-08-02T04:27:43.522Z,98977.38
2023-08-02T04:30:15.488Z,98973.63
2023-08-02T04:32:46.960Z,98972.78
2023-08-02T04:35:18.331Z,98966.59
2023-08-02T04:37:49.407Z,98969.63
2023-08-02T04:40:22.215Z,98966.91
2023-08-02T04:42:55.542Z,98969.53
2023-08-02T04:45:28.853Z,98975.59
2023-08-02T04:47:59.425Z,98976.22
2023-08-02T04:50:34.284Z,98979.94
2023-08-02T04:53:05.159Z,98977.78
2023-08-02T04:55:47.300Z,98977.03
2023-08-02T04:58:17.877Z,98975.34
2023-08-02T05:00:48.162Z,98984.47
2023-08-02T05:03:18.413Z,98982.22
2023-08-02T05:05:51.118Z,98984.06
2023-08-02T05:08:23.740Z,98987.53
2023-08-02T05:10:56.562Z,98980.34
2023-08-02T05:13:28.991Z,98992.38
2023-08-02T05:16:00.528Z,99000.81
2023-08-02T05:18:30.911Z,99001.13
2023-08-02T05:21:04.066Z,99009.72
2023-08-02T05:23:39.125Z,99002.81
2023-08-02T05:26:19.726Z,98996.66
2023-08-02T05:28:52.787Z,99007.25
2023-08-02T05:31:25.332Z,99006.72
2023-08-02T05:33:55.608Z,99010.81
2023-08-02T05:36:25.874Z,99018.78
2023-08-02T05:38:56.678Z,99014.84
2023-08-02T05:41:37.028Z,99019.34
2023-08-02T05:44:10.125Z,99012.88
2023-08-02T05:46:44.994Z,99010.69
2023-08-02T05:49:16.347Z,99005.56
2023-08-02T05:51:47.399Z,99005.25
2023-08-02T05:54:18.257Z,99002.06
2023-08-02T05:56:51.102Z,99007.50
2023-08-02T05:59:27.302Z,99010.44
2023-08-02T06:01:57.319Z,99000.13
2023-08-02T06:04:31.214Z,99008.13
2023-08-02T06:07:01.546Z,99012.06
2023-08-02T06:09:31.831Z,99000.41
2023-08-02T06:12:07.524Z,99009.16
2023-08-02T06:14:37.835Z,99010.53
2023-08-02T06:17:09.638Z,99013.88
2023-08-02T06:19:44.806Z,99019.63
2023-08-02T06:22:16.781Z,99024.56
2023-08-02T06:24:52.923Z,99027.16
2023-08-02T06:27:28.973Z,99032.53
2023-08-02T06:29:59.192Z,99044.09
2023-08-02T06:32:32.261Z,99037.50
2023-08-02T06:35:11.114Z,99036.94
2023-08-02T06:37:41.672Z,99045.66
2023-08-02T06:40:13.886Z,99036.66
2023-08-02T06:42:49.928Z,99030.50
2023-08-02T06:45:19.986Z,99040.00
2023-08-02T06:47:51.665Z,99050.00
2023-08-02T06:50:24.945Z,99053.75
2023-08-02T06:52:55.477Z,99046.25
2023-08-02T06:55:27.035Z,99058.25
2023-08-02T06:58:04.719Z,99057.25
2023-08-02T07:00:36.260Z,99065.75
2023-08-02T07:03:07.452Z,99059.34
2023-08-02T07:05:41.532Z,99072.06
2023-08-02T07:08:12.247Z,99074.00
2023-08-02T07:10:47.898Z,99075.81
2023-08-02T07:13:20.712Z,99084.16
2023-08-02T07:15:51.361Z,99081.56
2023-08-02T07:18:22.043Z,99084.84
2023-08-02T07:20:59.546Z,99076.44
2023-08-02T07:23:30.187Z,99080.22
2023-08-02T07:26:01.026Z,99076.19
2023-08-02T07:28:39.733Z,99087.94
2023-08-02T07:31:11.623Z,99091.41
2023-08-02T07:33:46.912Z,99090.72
2023-08-02T07:36:24.449Z,99090.66
2023-08-02T07:38:54.779Z,99085.75
2023-08-02T07:41:28.445Z,99081.47
2023-08-02T07:44:04.279Z,99092.38
2023-08-02T07:46:40.389Z,99086.84
2023-08-02T07:49:11.339Z,99081.53
2023-08-02T07:51:41.818Z,99089.59
2023-08-02T07:54:12.850Z,99089.00
2023-08-02T07:56:43.224Z,99086.16
2023-08-02T07:59:16.145Z,99084.69
2023-08-02T08:01:46.962Z,99086.31
2023-08-02T08:04:17.397Z,99090.22
2023-08-02T08:06:48.915Z,99090.41
2023-08-02T08:09:25.401Z,99082.78
2023-08-02T08:11:55.775Z,99075.19
2023-08-02T08:14:31.521Z,99075.75
2023-08-02T08:17:01.776Z,99075.31
2023-08-02T08:19:36.235Z,99076.22
2023-08-02T08:22:06.920Z,99073.59
2023-08-02T08:24:38.166Z,99073.81
2023-08-02T08:27:11.911Z,99065.25
2023-08-02T08:29:45.237Z,99070.78
2023-08-02T08:32:15.555Z,99068.22
2023-08-02T08:34:46.486Z,99064.44
2023-08-02T08:37:24.275Z,99065.38
2023-08-02T08:40:11.815Z,99067.81
2023-08-02T08:42:51.661Z,99067.59
2023-08-02T08:45:26.890Z,99064.06
2023-08-02T08:48:00.146Z,99068.97
2023-08-02T08:50:32.528Z,99062.16
2023-08-02T08:53:08.768Z,99068.13
2023-08-02T08:55:43.648Z,99077.41
2023-08-02T08:58:16.791Z,99076.88
2023-08-02T09:00:52.415Z,99078.25
2023-08-02T09:03:24.080Z,99075.50
2023-08-02T09:06:03.862Z,99068.47
2023-08-02T09:08:44.687Z,99067.09
2023-08-02T09:11:17.004Z,99073.31
2023-08-02T09:13:47.399Z,99075.97
2023-08-02T09:16:23.235Z,99076.56
2023-08-02T09:18:54.293Z,99062.69
2023-08-02T09:21:30.481Z,99064.38
2023-08-02T09:24:02.092Z,99062.22
2023-08-02T09:26:39.175Z,99062.75
2023-08-02T09:29:11.268Z,99070.09
2023-08-02T09:31:44.857Z,99080.41
2023-08-02T09:34:18.302Z,99076.03
2023-08-02T09:36:51.492Z,99083.16
2023-08-02T09:39:22.129Z,99075.25
2023-08-02T09:42:01.013Z,99076.91
2023-08-02T09:44:35.555Z,99074.94
2023-08-02T09:47:16.102Z,99085.81
2023-08-02T09:49:46.596Z,99083.09
2023-08-02T09:52:34.428Z,99073.03
2023-08-02T09:55:05.115Z,99073.63
2023-08-02T09:57:36.315Z,99077.13
2023-08-02T10:00:09.231Z,99075.50
2023-08-02T10:02:43.539Z,99071.69
2023-08-02T10:05:15.719Z,99070.91
2023-08-02T10:07:50.139Z,99073.34
2023-08-02T10:10:24.688Z,99068.75
2023-08-02T10:12:59.753Z,99073.34
2023-08-02T10:15:31.331Z,99080.16
2023-08-02T10:18:05.827Z,99068.16
2023-08-02T10:20:38.745Z,99076.03
2023-08-02T10:23:12.924Z,99081.94
2023-08-02T10:25:43.223Z,99076.69
2023-08-02T10:28:17.276Z,99076.22
2023-08-02T10:30:48.136Z,99073.50
2023-08-02T10:33:23.171Z,99058.59
2023-08-02T10:36:04.382Z,99055.25
2023-08-02T10:38:54.482Z,99052.00
2023-08-02T10:41:29.725Z,99060.78
2023-08-02T10:44:17.921Z,99048.47
2023-08-02T10:46:48.224Z,99042.00
2023-08-02T10:49:42.932Z,99052.59
2023-08-02T10:52:29.064Z,99050.44
2023-08-02T10:55:25.776Z,99041.25
2023-08-02T10:58:08.347Z,99045.53
2023-08-02T11:00:41.089Z,99052.78
2023-08-02T11:03:11.489Z,99034.66
2023-08-02T11:05:47.968Z,99035.75
2023-08-02T11:08:20.743Z,99035.44
2023-08-02T11:10:52.354Z,99032.44
2023-08-02T11:13:25.237Z,99021.13
2023-08-02T11:16:15.824Z,99030.91
2023-08-02T11:18:49.877Z,99039.63
2023-08-02T11:21:23.122Z,99037.72
2023-08-02T11:26:26.938Z,99025.19
2023-08-02T11:28:59.668Z,99024.91
2023-08-02T11:31:35.390Z,99026.03
2023-08-02T11:34:09.559Z,99021.13
2023-08-02T11:36:44.097Z,99012.66
2023-08-02T11:39:19.239Z,99017.03
2023-08-02T11:41:50.690Z,99015.66
2023-08-02T11:44:21.763Z,99018.69
2023-08-02T11:46:57.341Z,99025.78
2023-08-02T11:49:27.833Z,99013.75
2023-08-02T11:52:02.596Z,99014.56
2023-08-02T11:54:35.132Z,99018.66
2023-08-02T11:57:12.497Z,99010.25
2023-08-02T11:59:48.432Z,99022.19
2023-08-02T12:02:32.315Z,99011.59
2023-08-02T12:05:06.934Z,99012.03
2023-08-02T12:07:40.462Z,99008.47
2023-08-02T12:10:13.430Z,99014.75
2023-08-02T12:12:46.073Z,99018.81
2023-08-02T12:15:17.319Z,99010.84
2023-08-02T12:17:49.389Z,99004.69
2023-08-02T12:20:32.815Z,99013.19
2023-08-02T12:23:09.075Z,99007.50
2023-08-02T12:25:51.526Z,99008.56
2023-08-02T12:28:24.517Z,99003.56
2023-08-02T12:31:05.072Z,98998.31
2023-08-02T12:33:38.367Z,98991.84
2023-08-02T12:36:09.479Z,98991.91
2023-08-02T12:38:42.919Z,98997.94
2023-08-02T12:41:13.413Z,98991.09
2023-08-02T12:43:44.994Z,98996.19
2023-08-02T12:46:23.477Z,98989.31
2023-08-02T12:48:54.863Z,98983.31
2023-08-02T12:51:28.034Z,98979.59
2023-08-02T12:54:03.719Z,98985.06
2023-08-02T12:56:34.567Z,98969.03
2023-08-02T12:59:06.914Z,98960.53
2023-08-02T13:01:37.814Z,98964.97
2023-08-02T13:04:10.438Z,98968.06
2023-08-02T13:06:50.906Z,98966.41
2023-08-02T13:09:28.165Z,98966.34
2023-08-02T13:12:07.826Z,98966.13
2023-08-02T13:14:39.758Z,98959.78
2023-08-02T13:17:15.633Z,98967.84
2023-08-02T13:19:46.000Z,98967.88
2023-08-02T13:22:18.753Z,98967.91
2023-08-02T13:24:53.735Z,98974.47
2023-08-02T13:27:24.072Z,98968.16
2023-08-02T13:29:54.427Z,98964.00
2023-08-02T13:32:24.815Z,98969.88
2023-08-02T13:34:59.058Z,98966.34
2023-08-02T13:37:30.245Z,98967.97
2023-08-02T13:40:08.423Z,98954.81
2023-08-02T13:42:39.685Z,98950.25
2023-08-02T13:45:10.877Z,98943.50
2023-08-02T13:47:41.238Z,98941.69
2023-08-02T13:50:14.442Z,98937.19
2023-08-02T13:52:44.861Z,98935.78
2023-08-02T13:55:20.680Z,98936.09
2023-08-02T13:57:50.919Z,98934.16
2023-08-02T14:00:21.332Z,98943.94
2023-08-02T14:02:54.708Z,98945.94
2023-08-02T14:05:26.367Z,98936.91
2023-08-02T14:08:04.835Z,98938.50
2023-08-02T14:10:37.490Z,98939.28
2023-08-02T14:13:10.548Z,98947.75
2023-08-02T14:15:43.012Z,98934.75
2023-08-02T14:18:13.507Z,98951.09
2023-08-02T14:20:43.872Z,98949.72
2023-08-02T14:23:16.942Z,98956.00
2023-08-02T14:25:50.032Z,98940.25
2023-08-02T14:28:20.693Z,98939.03
2023-08-02T14:30:51.080Z,98957.84
2023-08-02T14:33:23.945Z,98961.66
2023-08-02T14:35:54.358Z,98956.53
2023-08-02T14:38:27.489Z,98958.44
2023-08-02T14:41:00.793Z,98957.63
2023-08-02T14:43:33.297Z,98953.25
2023-08-02T14:46:06.454Z,98960.59
2023-08-02T14:48:36.869Z,98957.13
2023-08-02T14:51:07.781Z,98965.25
2023-08-02T14:53:41.575Z,98970.44
2023-08-02T14:56:17.196Z,98958.47
2023-08-02T14:58:50.478Z,98949.53
2023-08-02T15:01:26.023Z,98946.25
2023-08-02T15:03:57.304Z,98944.63
2023-08-02T15:06:28.346Z,98954.66
2023-08-02T15:08:58.753Z,98942.47
2023-08-02T15:11:31.860Z,98942.47
2023-08-02T15:14:02.234Z,98942.47
2023-08-02T15:16:32.593Z,98936.22
2023-08-02T15:19:05.725Z,98947.31
2023-08-02T15:21:39.845Z,98936.69
2023-08-02T15:24:12.815Z,98933.75
2023-08-02T15:26:45.798Z,98928.09
2023-08-02T15:29:16.702Z,98926.75
2023-08-02T15:31:47.037Z,98930.00
2023-08-02T15:34:22.168Z,98921.03
2023-08-02T15:36:52.859Z,98925.91
2023-08-02T15:39:26.934Z,98931.66
2023-08-02T15:41:59.876Z,98925.41
2023-08-02T15:44:30.206Z,98922.41
2023-08-02T15:47:00.713Z,98919.16
2023-08-02T15:49:31.046Z,98913.16
2023-08-02T15:52:01.489Z,98918.63
2023-08-02T15:54:32.055Z,98912.06
2023-08-02T15:57:07.702Z,98914.53
2023-08-02T15:59:43.229Z,98911.84
2023-08-02T16:02:16.124Z,98903.13
2023-08-02T16:04:46.662Z,98911.50
2023-08-02T16:07:17.278Z,98901.44
2023-08-02T16:09:55.224Z,98903.34
2023-08-02T16:12:35.270Z,98902.78
2023-08-02T16:15:05.781Z,98906.88
2023-08-02T16:17:38.571Z,98894.63
2023-08-02T16:20:10.824Z,98903.88
2023-08-02T16:25:14.244Z,98901.94
2023-08-02T16:27:52.124Z,98898.94
2023-08-02T16:30:25.280Z,98898.13
2023-08-02T16:32:55.624Z,98897.84
2023-08-02T16:35:31.567Z,98895.63
2023-08-02T16:38:04.906Z,98899.41
2023-08-02T16:40:38.859Z,98897.75
2023-08-02T16:43:11.751Z,98900.44
2023-08-02T16:45:43.478Z,98899.34
2023-08-02T16:48:18.738Z,98903.94
2023-08-02T16:50:51.708Z,98894.69
2023-08-02T16:53:22.290Z,98900.63
2023-08-02T16:55:52.905Z,98897.06
2023-08-02T16:58:27.985Z,98899.75
2023-08-02T17:00:58.216Z,98903.22
2023-08-02T17:03:31.447Z,98894.22
2023-08-02T17:06:01.800Z,98900.13
2023-08-02T17:08:32.119Z,98893.91
2023-08-02T17:11:02.374Z,98900.34
2023-08-02T17:13:37.467Z,98899.50
2023-08-02T17:16:08.248Z,98897.53
2023-08-02T17:18:38.582Z,98895.00
2023-08-02T17:21:10.901Z,98890.28
2023-08-02T17:23:41.552Z,98895.09
2023-08-02T17:26:15.184Z,98894.72
2023-08-02T17:28:51.109Z,98898.72
2023-08-02T17:31:26.457Z,98892.66
2023-08-02T17:33:57.049Z,98891.47
2023-08-02T17:36:29.813Z,98889.81
2023-08-02T17:39:00.496Z,98893.75
2023-08-02T17:41:33.634Z,98892.88
2023-08-02T17:44:06.892Z,98896.84
2023-08-02T17:46:37.297Z,98886.75
2023-08-02T17:49:07.800Z,98888.25
2023-08-02T17:51:39.748Z,98899.75
2023-08-02T17:54:10.105Z,98893.09
2023-08-02T17:56:43.092Z,98897.16
2023-08-02T17:59:17.235Z,98897.25
2023-08-02T18:01:49.427Z,98904.31
2023-08-02T18:04:27.248Z,98903.84
2023-08-02T18:06:57.551Z,98902.03
2023-08-02T18:09:30.389Z,98902.09
2023-08-02T18:12:01.975Z,98902.75
2023-08-02T18:14:34.893Z,98902.56
2023-08-02T18:17:05.243Z,98899.13
2023-08-02T18:19:36.686Z,98894.59
2023-08-02T18:22:10.142Z,98882.47
2023-08-02T18:24:43.220Z,98894.69
2023-08-02T18:27:13.800Z,98897.22
2023-08-02T18:29:46.776Z,98894.31
2023-08-02T18:32:17.118Z,98890.56
2023-08-02T18:34:51.543Z,98896.59
2023-08-02T18:37:21.814Z,98899.41
2023-08-02T18:39:55.081Z,98904.94
2023-08-02T18:42:28.471Z,98910.09
2023-08-02T18:45:03.144Z,98916.66
2023-08-02T18:47:34.558Z,98919.22
2023-08-02T18:50:07.173Z,98912.91
2023-08-02T18:52:38.304Z,98918.19
2023-08-02T18:55:12.307Z,98908.94
2023-08-02T18:57:42.945Z,98899.09
2023-08-02T19:00:17.078Z,98897.91
2023-08-02T19:02:48.259Z,98910.44
2023-08-02T19:05:18.678Z,98911.16
2023-08-02T19:07:52.026Z,98913.16
2023-08-02T19:10:22.654Z,98914.66
2023-08-02T19:12:53.231Z,98912.88
2023-08-02T19:15:31.328Z,98910.88
2023-08-02T19:18:03.919Z,98918.81
2023-08-02T19:20:35.516Z,98913.09
2023-08-02T19:23:09.444Z,98907.09
2023-08-02T19:25:42.762Z,98910.63
2023-08-02T19:28:18.430Z,98907.56
2023-08-02T19:30:53.360Z,98908.84
2023-08-02T19:33:23.647Z,98911.41
2023-08-02T19:35:56.056Z,98907.19
2023-08-02T19:38:31.243Z,98907.50
2023-08-02T19:41:02.352Z,98914.16
2023-08-02T19:43:32.696Z,98917.41
2023-08-02T19:46:05.579Z,98918.94
2023-08-02T19:48:42.350Z,98916.31
2023-08-02T19:51:15.705Z,98920.72
2023-08-02T19:53:47.601Z,98922.81
2023-08-02T19:56:23.701Z,98909.25
2023-08-02T19:58:54.291Z,98906.25
2023-08-02T20:01:32.741Z,98907.16
2023-08-02T20:04:08.960Z,98900.59
2023-08-02T20:06:45.651Z,98904.53
2023-08-02T20:09:17.177Z,98897.03
2023-08-02T20:11:47.459Z,98911.34
2023-08-02T20:14:24.004Z,98919.94
2023-08-02T20:16:56.687Z,98914.88
2023-08-02T20:19:28.658Z,98917.41
2023-08-02T20:21:58.926Z,98924.69
2023-08-02T20:24:29.241Z,98935.06
2023-08-02T20:27:02.687Z,98935.94
2023-08-02T20:29:33.729Z,98939.66
2023-08-02T20:32:07.485Z,98942.41
2023-08-02T20:34:38.795Z,98946.19
2023-08-02T20:37:14.707Z,98935.50
2023-08-02T20:39:48.096Z,98943.25
2023-08-02T20:42:18.506Z,98944.94
2023-08-02T20:44:52.809Z,98942.97
2023-08-02T20:47:25.906Z,98943.19
2023-08-02T20:49:58.781Z,98953.53
2023-08-02T20:52:29.153Z,98938.06
2023-08-02T20:55:00.587Z,98948.41
2023-08-02T20:57:31.111Z,98946.78
2023-08-02T21:00:06.442Z,98952.78
2023-08-02T21:02:43.611Z,98954.25
2023-08-02T21:05:17.140Z,98955.97
2023-08-02T21:07:50.610Z,98959.69
2023-08-02T21:10:29.302Z,98951.84
2023-08-02T21:13:07.308Z,98954.91
2023-08-02T21:15:37.685Z,98955.97
2023-08-02T21:18:13.612Z,98957.63
2023-08-02T21:20:48.298Z,98954.78
2023-08-02T21:23:20.034Z,98956.91
2023-08-02T21:25:52.250Z,98951.97
2023-08-02T21:28:24.437Z,98956.50
2023-08-02T21:30:57.970Z,98950.09
2023-08-02T21:33:35.443Z,98957.94
2023-08-02T21:36:06.195Z,98948.28
2023-08-02T21:38:40.173Z,98952.84
2023-08-02T21:41:13.271Z,98954.75
2023-08-02T21:43:46.208Z,98963.81
2023-08-02T21:46:18.875Z,98947.13
2023-08-02T21:48:55.609Z,98955.59
2023-08-02T21:51:29.334Z,98947.78
2023-08-02T21:54:00.970Z,98944.28
2023-08-02T21:56:35.731Z,98943.44
2023-08-02T21:59:06.582Z,98945.50
2023-08-02T22:01:37.240Z,98943.44
2023-08-02T22:04:14.429Z,98941.03
2023-08-02T22:06:53.737Z,98948.88
2023-08-02T22:09:27.260Z,98943.94
2023-08-02T22:11:57.872Z,98956.28
2023-08-02T22:14:31.091Z,98952.38
2023-08-02T22:17:08.437Z,98948.47
2023-08-02T22:19:44.238Z,98951.31
2023-08-02T22:22:17.941Z,98956.72
2023-08-02T22:24:53.520Z,98949.53
2023-08-02T22:27:28.500Z,98949.94
2023-08-02T22:30:00.085Z,98944.59
2023-08-02T22:32:33.734Z,98941.09
2023-08-02T22:35:07.523Z,98944.59
2023-08-02T22:37:38.166Z,98949.34
2023-08-02T22:40:13.600Z,98952.84
2023-08-02T22:42:46.939Z,98961.91
2023-08-02T22:45:17.436Z,98960.06
2023-08-02T22:48:03.230Z,98962.13
2023-08-02T22:53:15.110Z,98954.28
2023-08-02T22:55:45.679Z,98952.66
2023-08-02T22:58:22.080Z,98955.34
2023-08-02T23:00:53.058Z,98946.91
2023-08-02T23:03:35.304Z,98950.41
2023-08-02T23:06:15.747Z,98946.50
2023-08-02T23:08:46.098Z,98949.97
2023-08-02T23:11:20.064Z,98945.66
2023-08-02T23:13:53.562Z,98944.00
2023-08-02T23:16:25.329Z,98942.38
2023-08-02T23:19:01.595Z,98940.50
2023-08-02T23:21:42.208Z,98940.13
2023-08-02T23:24:15.424Z,98941.72
2023-08-02T23:26:48.069Z,98943.56
2023-08-02T23:29:21.522Z,98944.19
2023-08-02T23:31:54.767Z,98942.75
2023-08-02T23:34:25.606Z,98937.81
2023-08-02T23:36:59.028Z,98940.25
2023-08-02T23:39:29.341Z,98939.44
2023-08-02T23:42:00.002Z,98933.25
2023-08-02T23:44:36.615Z,98933.25
2023-08-02T23:47:13.625Z,98923.19
2023-08-02T23:49:43.898Z,98921.53
2023-08-02T23:52:16.833Z,98920.50
2023-08-02T23:54:47.171Z,98913.91
2023-08-02T23:57:17.486Z,98923.59
2023-08-02T23:59:48.214Z,98924.22
